Terminal Aerodrome Forecast
Issued by NWS

Home | Current Version | Previous Version | Text Only | Print | Product List | Glossary On
Versions: 1 2 3 4 5 6 7 8 9 10 11 12 13 14
000
FTAK31 PAJN 301100
TAFASI
TAF
PASI 301120Z 3012/0112 VRB02KT P6SM SCT020 OVC050
      TEMPO 3012/3016 BKN020
     FM301600 27006KT P6SM SCT020 BKN040
     FM302100 22008KT P6SM VCSH BKN050 BKN100
     FM010600 26005KT P6SM VCSH BKN025 OVC050=

USA.gov is the U.S. government's official web portal to all federal, state and local government web resources and services.